createdAt,value
2018-07-02T05:05:36.375Z,17.16
2018-07-02T05:16:15.547Z,17.15
2018-07-02T05:21:19.886Z,17.26
2018-07-02T05:26:23.230Z,17.37
2018-07-02T05:31:26.969Z,17.49
2018-07-02T05:36:30.362Z,17.72
2018-07-02T05:41:34.069Z,17.61
2018-07-02T05:46:37.440Z,17.73
2018-07-02T05:51:40.792Z,17.72
2018-07-02T05:56:44.146Z,17.84
2018-07-02T06:01:48.289Z,18.09
2018-07-02T06:06:51.708Z,18.36
2018-07-02T06:11:55.251Z,18.29
2018-07-02T06:16:58.575Z,18.36
2018-07-02T06:22:02.008Z,18.50
2018-07-02T06:27:05.345Z,18.51
2018-07-02T06:32:09.630Z,18.72
2018-07-02T06:37:12.962Z,18.80
2018-07-02T06:42:16.289Z,18.98
2018-07-02T06:47:19.623Z,18.99
2018-07-02T06:52:23.711Z,19.05
2018-07-02T06:57:27.034Z,19.03
2018-07-02T07:02:30.366Z,19.09
2018-07-02T07:07:33.702Z,19.12
2018-07-02T07:12:37.152Z,19.31
2018-07-02T07:17:40.491Z,19.24
2018-07-02T07:22:43.826Z,19.49
2018-07-02T07:27:47.928Z,19.63
2018-07-02T07:32:51.255Z,19.64
2018-07-02T07:37:54.836Z,19.82
2018-07-02T07:42:58.184Z,19.90
2018-07-02T07:48:05.114Z,20.09
2018-07-02T07:53:08.466Z,20.18
2018-07-02T07:58:11.791Z,20.30
2018-07-02T08:03:15.119Z,20.29
2018-07-02T08:08:18.463Z,20.32
2018-07-02T08:13:21.799Z,20.47
2018-07-02T08:18:25.131Z,20.51
2018-07-02T08:23:28.456Z,20.60
2018-07-02T08:28:31.816Z,20.57
2018-07-02T08:33:35.305Z,20.66
2018-07-02T08:38:39.425Z,20.80
2018-07-02T08:43:43.533Z,20.83
2018-07-02T08:48:46.858Z,20.89
2018-07-02T08:53:50.202Z,21.05
2018-07-02T08:58:54.299Z,21.12
2018-07-02T09:03:57.639Z,21.23
2018-07-02T09:09:01.071Z,21.36
2018-07-02T09:14:05.179Z,21.48
2018-07-02T09:19:08.531Z,21.64
2018-07-02T09:24:12.274Z,21.67
2018-07-02T09:29:15.629Z,21.71
2018-07-02T09:34:19.938Z,21.69
2018-07-02T09:39:23.354Z,21.72
2018-07-02T09:44:27.502Z,21.69
2018-07-02T09:49:30.880Z,21.85
2018-07-02T09:54:34.210Z,21.89
2018-07-02T09:59:37.559Z,22.08
2018-07-02T10:04:41.684Z,22.25
2018-07-02T10:09:45.914Z,22.14
2018-07-02T10:14:49.367Z,22.37
2018-07-02T10:19:52.743Z,22.29
2018-07-02T10:24:56.861Z,22.39
2018-07-02T10:30:00.192Z,22.46
2018-07-02T10:35:04.301Z,22.58
2018-07-02T10:40:07.634Z,22.58
2018-07-02T10:45:11.724Z,22.64
2018-07-02T10:50:15.077Z,22.68
2018-07-02T10:55:18.407Z,22.82
2018-07-02T11:00:22.504Z,22.90
2018-07-02T11:05:25.863Z,22.84
2018-07-02T11:10:29.192Z,22.71
2018-07-02T11:15:32.526Z,22.90
2018-07-02T11:20:35.855Z,23.06
2018-07-02T11:25:39.189Z,23.19
2018-07-02T11:30:43.283Z,23.31
2018-07-02T11:35:46.615Z,23.43
2018-07-02T11:40:49.964Z,23.41
2018-07-02T11:45:53.318Z,23.62
2018-07-02T11:50:57.514Z,23.85
2018-07-02T11:56:00.853Z,24.38
2018-07-02T12:01:04.425Z,24.81
2018-07-02T12:06:07.855Z,25.50
2018-07-02T12:11:11.619Z,26.18
2018-07-02T12:16:14.991Z,26.55
2018-07-02T12:21:18.318Z,27.20
2018-07-02T12:26:21.671Z,27.50
2018-07-02T12:31:25.031Z,27.70
2018-07-02T12:36:28.372Z,26.53
2018-07-02T12:41:31.891Z,26.93
2018-07-02T12:46:35.259Z,26.85
2018-07-02T12:51:38.591Z,26.22
2018-07-02T12:56:41.927Z,26.73
2018-07-02T13:01:45.358Z,26.88
2018-07-02T13:06:48.691Z,27.04
2018-07-02T13:11:52.384Z,26.99
2018-07-02T13:16:55.714Z,26.71
2018-07-02T13:21:59.040Z,26.33
2018-07-02T13:27:02.374Z,26.96
2018-07-02T13:32:06.468Z,26.23
2018-07-02T13:37:09.806Z,27.66
2018-07-02T13:42:13.137Z,28.43
2018-07-02T13:47:16.456Z,28.28
2018-07-02T13:52:19.786Z,28.14
2018-07-02T13:57:23.114Z,28.16
2018-07-02T14:02:26.463Z,28.79
2018-07-02T14:07:29.777Z,29.37
2018-07-02T14:12:33.106Z,29.94
2018-07-02T14:17:36.435Z,29.26
2018-07-02T14:22:39.767Z,29.90
2018-07-02T14:27:43.093Z,27.95
2018-07-02T14:32:46.443Z,28.93
2018-07-02T14:37:50.546Z,29.69
2018-07-02T14:42:53.874Z,29.89
2018-07-02T14:47:57.202Z,30.10
2018-07-02T14:53:01.291Z,29.72
2018-07-02T14:58:04.619Z,31.36
2018-07-02T15:03:07.944Z,31.08
2018-07-02T15:08:11.270Z,31.51
2018-07-02T15:13:15.376Z,32.23
2018-07-02T15:18:18.724Z,33.26
2018-07-02T15:23:22.814Z,33.64
2018-07-02T15:28:26.138Z,33.43
2018-07-02T15:33:29.471Z,34.14
2018-07-02T15:38:32.802Z,34.79
2018-07-02T15:43:36.137Z,35.02
2018-07-02T15:48:39.455Z,33.56
2018-07-02T15:53:42.779Z,33.62
2018-07-02T15:58:46.114Z,33.63
2018-07-02T16:03:49.446Z,33.74
2018-07-02T16:08:53.534Z,33.83
2018-07-02T16:13:56.865Z,33.58
2018-07-02T16:19:00.190Z,34.47
2018-07-02T16:24:03.539Z,34.73
2018-07-02T16:29:07.078Z,35.56
2018-07-02T16:34:10.426Z,34.63
2018-07-02T16:39:13.827Z,34.27
2018-07-02T16:44:17.197Z,34.72
2018-07-02T16:49:20.525Z,34.57
2018-07-02T16:54:23.853Z,34.94
2018-07-02T16:59:34.953Z,34.72
2018-07-02T17:04:38.467Z,34.39
2018-07-02T17:09:41.835Z,34.46
2018-07-02T17:14:45.174Z,35.05
2018-07-02T17:19:48.515Z,35.16
2018-07-02T17:24:51.887Z,35.34
2018-07-02T17:29:55.246Z,35.55
2018-07-02T17:34:58.686Z,35.26
2018-07-02T17:40:02.029Z,34.76
2018-07-02T17:45:05.362Z,34.26
2018-07-02T17:50:08.718Z,33.79
2018-07-02T17:55:12.849Z,33.85
2018-07-02T18:00:16.966Z,33.74
2018-07-02T18:05:20.312Z,33.60
2018-07-02T18:10:23.667Z,33.46
2018-07-02T18:15:27.776Z,33.43
2018-07-02T18:20:31.142Z,33.26
2018-07-02T18:25:34.567Z,33.03
2018-07-02T18:30:42.588Z,32.76
2018-07-02T18:35:46.678Z,32.50
2018-07-02T18:40:51.036Z,32.46
2018-07-02T18:45:54.401Z,32.51
2018-07-02T18:50:57.767Z,32.03
2018-07-02T18:56:01.103Z,31.53
2018-07-02T19:01:05.208Z,31.04
2018-07-02T19:06:08.780Z,30.67
2018-07-02T19:11:13.206Z,30.27
2018-07-02T19:16:16.844Z,29.60
2018-07-02T19:21:20.493Z,28.99
2018-07-02T19:26:24.580Z,28.63
2018-07-02T19:31:28.723Z,28.28
2018-07-02T19:36:32.926Z,27.97
2018-07-02T19:41:36.578Z,27.63
2018-07-02T19:46:39.927Z,27.56
2018-07-02T19:51:43.260Z,27.39
2018-07-02T19:56:46.846Z,27.20
2018-07-02T20:01:50.174Z,26.98
2018-07-02T20:06:53.914Z,26.72
2018-07-02T20:11:57.230Z,26.56
2018-07-02T20:17:01.319Z,26.50
2018-07-02T20:22:04.659Z,26.44
2018-07-02T20:27:08.079Z,26.38
2018-07-02T20:32:11.448Z,26.32
2018-07-02T20:37:22.895Z,26.26
2018-07-02T20:42:26.247Z,26.23
2018-07-02T20:47:29.575Z,26.05
2018-07-02T20:52:32.902Z,26.01
2018-07-02T20:57:36.242Z,25.86
2018-07-02T21:02:39.581Z,25.68
2018-07-02T21:07:43.687Z,25.62
2018-07-02T21:12:47.010Z,25.63
2018-07-02T21:17:51.117Z,25.55
2018-07-02T21:22:54.469Z,25.49
2018-07-02T21:28:09.889Z,25.42
2018-07-02T21:33:13.314Z,25.30
2018-07-02T21:38:16.643Z,25.23
2018-07-02T21:43:19.984Z,25.10
2018-07-02T21:48:24.155Z,24.93
2018-07-02T21:53:28.207Z,24.71
2018-07-02T21:58:31.537Z,24.57
2018-07-02T22:03:34.886Z,24.38
2018-07-02T22:08:39.163Z,24.24
2018-07-02T22:13:42.890Z,23.96
2018-07-02T22:18:46.214Z,23.92
2018-07-02T22:23:49.562Z,23.69
2018-07-02T22:28:53.660Z,23.49
